createdAt,value
2018-08-11T00:00:39.630Z,34.87
2018-08-11T00:02:23.674Z,34.78
2018-08-11T00:04:01.521Z,34.44
2018-08-11T00:05:38.308Z,34.43
2018-08-11T00:07:13.633Z,35.01
2018-08-11T00:08:49.935Z,34.53
2018-08-11T00:10:29.016Z,34.45
2018-08-11T00:12:06.436Z,35.02
2018-08-11T00:13:41.682Z,34.93
2018-08-11T00:15:22.729Z,35.13
2018-08-11T00:17:00.034Z,35.05
2018-08-11T00:18:36.241Z,35.11
2018-08-11T00:20:15.296Z,34.89
2018-08-11T00:21:50.856Z,35.05
2018-08-11T00:23:27.821Z,34.48
2018-08-11T00:25:04.395Z,34.51
2018-08-11T00:26:39.683Z,35.15
2018-08-11T00:28:16.320Z,35.11
2018-08-11T00:29:52.373Z,35.08
2018-08-11T00:31:30.620Z,34.56
2018-08-11T00:33:07.185Z,34.55
2018-08-11T00:34:43.390Z,34.35
2018-08-11T00:36:22.045Z,35.21
2018-08-11T00:37:58.410Z,34.61
2018-08-11T00:39:34.573Z,34.65
2018-08-11T00:41:10.254Z,35.12
2018-08-11T00:42:47.354Z,35.25
2018-08-11T00:44:23.940Z,35.14
2018-08-11T00:45:59.675Z,35.22
2018-08-11T00:47:35.482Z,35.15
2018-08-11T00:49:10.727Z,34.62
2018-08-11T00:50:46.349Z,35.33
2018-08-11T00:52:22.419Z,35.37
2018-08-11T00:53:58.244Z,35.19
2018-08-11T00:55:33.553Z,34.71
2018-08-11T00:57:09.026Z,34.66
2018-08-11T00:58:45.992Z,35.21
2018-08-11T01:00:21.707Z,34.70
2018-08-11T01:01:57.267Z,34.68
2018-08-11T01:03:32.595Z,35.28
2018-08-11T01:05:11.839Z,34.74
2018-08-11T01:06:48.385Z,35.21
2018-08-11T01:08:24.760Z,35.28
2018-08-11T01:10:01.029Z,35.24
2018-08-11T01:11:36.334Z,35.13
2018-08-11T01:13:11.975Z,34.82
2018-08-11T01:14:48.144Z,34.72
2018-08-11T01:16:24.510Z,35.18
2018-08-11T01:18:00.208Z,34.78
2018-08-11T01:19:35.948Z,34.80
2018-08-11T01:21:11.710Z,34.85
2018-08-11T01:22:50.232Z,34.82
2018-08-11T01:24:26.498Z,34.93
2018-08-11T01:26:02.568Z,34.93
2018-08-11T01:27:38.281Z,35.40
2018-08-11T01:29:13.933Z,35.03
2018-08-11T01:30:49.397Z,35.00
2018-08-11T01:32:25.431Z,35.22
2018-08-11T01:34:01.006Z,35.50
2018-08-11T01:35:36.472Z,35.51
2018-08-11T01:37:12.920Z,35.55
2018-08-11T01:38:48.554Z,35.40
2018-08-11T01:40:25.295Z,35.58
2018-08-11T01:42:01.295Z,35.17
2018-08-11T01:43:36.532Z,35.62
2018-08-11T01:45:15.349Z,35.51
2018-08-11T01:46:52.695Z,35.61
2018-08-11T01:48:28.264Z,35.68
2018-08-11T01:50:03.713Z,35.25
2018-08-11T01:51:39.456Z,35.35
2018-08-11T01:53:14.724Z,35.66
2018-08-11T01:54:50.024Z,35.90
2018-08-11T01:56:26.468Z,35.73
2018-08-11T01:58:03.328Z,35.49
2018-08-11T01:59:38.642Z,35.88
2018-08-11T02:01:14.331Z,35.50
2018-08-11T02:02:49.599Z,35.99
2018-08-11T02:04:25.785Z,35.65
2018-08-11T02:06:01.378Z,35.59
2018-08-11T02:07:36.799Z,36.17
2018-08-11T02:09:12.746Z,36.03
2018-08-11T02:10:48.582Z,36.16
2018-08-11T02:12:24.015Z,35.79
2018-08-11T02:13:59.319Z,35.82
2018-08-11T02:15:35.119Z,35.84
2018-08-11T02:17:11.994Z,35.94
2018-08-11T02:18:50.410Z,36.01
2018-08-11T02:20:25.688Z,36.10
2018-08-11T02:22:01.265Z,36.60
2018-08-11T02:23:37.318Z,36.22
2018-08-11T02:25:14.061Z,36.27
2018-08-11T02:26:49.822Z,36.78
2018-08-11T02:28:25.443Z,36.79
2018-08-11T02:30:01.619Z,36.36
2018-08-11T02:31:37.299Z,36.69
2018-08-11T02:33:12.609Z,36.49
2018-08-11T02:34:49.381Z,36.53
2018-08-11T02:36:25.191Z,36.90
2018-08-11T02:38:00.475Z,36.62
2018-08-11T02:39:36.081Z,36.66
2018-08-11T02:41:11.355Z,37.27
2018-08-11T02:42:47.581Z,36.71
2018-08-11T02:44:22.857Z,37.35
2018-08-11T02:45:58.469Z,37.35
2018-08-11T02:47:33.732Z,37.37
2018-08-11T02:49:10.265Z,37.51
2018-08-11T02:50:46.163Z,37.53
2018-08-11T02:52:21.437Z,37.00
2018-08-11T02:53:57.141Z,37.00
2018-08-11T02:55:33.076Z,37.72
2018-08-11T02:57:08.353Z,37.60
2018-08-11T02:58:43.635Z,37.80
2018-08-11T03:00:19.252Z,37.72
2018-08-11T03:01:56.697Z,37.87
2018-08-11T03:03:33.394Z,37.88
2018-08-11T03:05:09.496Z,37.62
2018-08-11T03:06:44.780Z,37.72
2018-08-11T03:08:20.328Z,37.59
2018-08-11T03:09:57.764Z,37.59
2018-08-11T03:11:32.927Z,37.63
2018-08-11T03:13:08.165Z,37.66
2018-08-11T03:14:43.757Z,37.72
2018-08-11T03:16:19.163Z,38.37
2018-08-11T03:17:54.423Z,37.80
2018-08-11T03:19:29.953Z,38.40
2018-08-11T03:21:05.397Z,38.35
2018-08-11T03:22:40.930Z,38.02
2018-08-11T03:24:16.539Z,38.62
2018-08-11T03:25:52.047Z,38.44
2018-08-11T03:27:28.234Z,38.38
2018-08-11T03:29:03.459Z,38.22
2018-08-11T03:30:38.769Z,38.26
2018-08-11T03:32:14.451Z,38.41
2018-08-11T03:33:51.326Z,38.74
2018-08-11T03:35:27.077Z,38.54
2018-08-11T03:37:02.609Z,38.36
2018-08-11T03:38:39.335Z,38.54
2018-08-11T03:40:15.838Z,38.58
2018-08-11T03:41:51.333Z,39.08
2018-08-11T03:43:26.531Z,39.15
2018-08-11T03:45:01.825Z,38.79
2018-08-11T03:46:37.257Z,38.88
2018-08-11T03:48:12.459Z,39.22
2018-08-11T03:49:47.659Z,39.28
2018-08-11T03:51:23.000Z,39.34
2018-08-11T03:52:58.683Z,38.95
2018-08-11T03:54:33.878Z,39.54
2018-08-11T03:56:09.093Z,39.06
2018-08-11T03:57:44.309Z,39.62
2018-08-11T03:59:20.041Z,39.51
2018-08-11T04:00:55.524Z,39.17
2018-08-11T04:02:30.743Z,39.28
2018-08-11T04:04:06.042Z,39.83
2018-08-11T04:05:43.291Z,39.81
2018-08-11T04:07:18.483Z,39.38
2018-08-11T04:08:53.776Z,39.93
2018-08-11T04:10:29.009Z,39.87
2018-08-11T04:12:05.073Z,40.00
2018-08-11T04:13:40.299Z,39.75
2018-08-11T04:15:18.551Z,39.52
2018-08-11T04:16:53.684Z,39.58
2018-08-11T04:18:29.912Z,40.21
2018-08-11T04:20:05.505Z,40.21
2018-08-11T04:21:40.925Z,39.93
2018-08-11T04:23:17.035Z,40.30
2018-08-11T04:24:53.614Z,39.93
2018-08-11T04:26:29.376Z,40.50
2018-08-11T04:28:05.825Z,40.02
2018-08-11T04:29:40.977Z,40.10
2018-08-11T04:31:16.793Z,40.44
2018-08-11T04:32:51.932Z,40.13
2018-08-11T04:34:27.115Z,40.83
2018-08-11T04:36:02.336Z,40.81
2018-08-11T04:37:37.863Z,40.83
2018-08-11T04:39:13.003Z,40.46
2018-08-11T04:40:48.187Z,40.82
2018-08-11T04:42:23.359Z,41.00
2018-08-11T04:43:58.991Z,40.50
2018-08-11T04:45:34.635Z,41.03
2018-08-11T04:47:10.033Z,41.17
2018-08-11T04:48:45.662Z,40.70
2018-08-11T04:50:21.494Z,41.16
2018-08-11T04:51:57.491Z,41.12
2018-08-11T04:53:32.679Z,41.25
2018-08-11T04:55:08.009Z,40.81
2018-08-11T04:56:44.503Z,41.30
2018-08-11T04:58:19.690Z,40.90
2018-08-11T04:59:55.283Z,41.45
2018-08-11T05:01:30.787Z,41.00
2018-08-11T05:03:06.701Z,41.07
2018-08-11T05:04:42.296Z,41.60
2018-08-11T05:06:18.597Z,41.73
2018-08-11T05:07:54.742Z,41.78
2018-08-11T05:09:32.241Z,41.72
2018-08-11T05:11:08.331Z,41.72
2018-08-11T05:12:44.075Z,41.86
2018-08-11T05:14:19.216Z,41.93
2018-08-11T05:15:55.596Z,42.01
2018-08-11T05:17:30.784Z,41.54
2018-08-11T05:19:06.665Z,41.98
2018-08-11T05:20:43.637Z,42.28
2018-08-11T05:22:20.983Z,41.71
2018-08-11T05:23:57.487Z,41.91
2018-08-11T05:25:33.075Z,41.76
2018-08-11T05:27:08.435Z,42.45
2018-08-11T05:28:45.805Z,41.96
2018-08-11T05:30:26.173Z,42.36
2018-08-11T05:32:02.615Z,41.97
2018-08-11T05:33:39.978Z,42.05
2018-08-11T05:35:15.319Z,42.28
2018-08-11T05:36:50.553Z,42.10
2018-08-11T05:38:26.146Z,42.13
2018-08-11T05:40:03.489Z,42.67
2018-08-11T05:41:39.055Z,42.19
2018-08-11T05:43:14.228Z,42.49
2018-08-11T05:44:50.744Z,42.32
2018-08-11T05:46:26.327Z,42.63
2018-08-11T05:48:01.504Z,42.29
2018-08-11T05:49:36.793Z,42.36
2018-08-11T05:51:11.935Z,42.53
2018-08-11T05:52:47.471Z,42.99
2018-08-11T05:54:23.500Z,42.89
2018-08-11T05:55:58.683Z,42.55
2018-08-11T05:57:33.991Z,43.09
2018-08-11T05:59:09.728Z,43.22
2018-08-11T06:00:45.016Z,42.64
2018-08-11T06:02:20.581Z,43.22
2018-08-11T06:03:56.172Z,42.74
2018-08-11T06:05:33.376Z,43.43
2018-08-11T06:07:09.580Z,42.85
2018-08-11T06:08:45.200Z,42.88
2018-08-11T06:10:20.289Z,43.49
2018-08-11T06:11:55.988Z,43.50
2018-08-11T06:13:31.224Z,43.62
2018-08-11T06:15:09.969Z,43.68
2018-08-11T06:16:47.193Z,43.15
2018-08-11T06:18:23.415Z,43.77
2018-08-11T06:20:02.312Z,43.14
2018-08-11T06:21:37.530Z,43.80
2018-08-11T06:23:12.734Z,43.33
2018-08-11T06:24:48.355Z,43.97
2018-08-11T06:26:23.539Z,44.00
2018-08-11T06:27:58.687Z,43.55
2018-08-11T06:29:34.555Z,43.49
2018-08-11T06:31:12.491Z,43.63
2018-08-11T06:32:48.054Z,43.77
2018-08-11T06:34:23.807Z,43.73
2018-08-11T06:35:59.405Z,44.21
2018-08-11T06:37:35.070Z,44.28
2018-08-11T06:39:13.635Z,44.03
2018-08-11T06:40:50.770Z,44.13
2018-08-11T06:42:26.326Z,44.34
2018-08-11T06:44:07.002Z,44.49
2018-08-11T06:45:44.594Z,44.10
2018-08-11T06:47:20.616Z,44.49
2018-08-11T06:48:56.036Z,44.36
2018-08-11T06:50:34.891Z,44.02
2018-08-11T06:52:11.306Z,44.04
2018-08-11T06:53:48.422Z,44.04
2018-08-11T06:55:23.661Z,44.71
2018-08-11T06:56:59.459Z,44.11
2018-08-11T06:58:36.879Z,44.68
2018-08-11T07:00:16.691Z,44.03
2018-08-11T07:01:53.324Z,44.06
2018-08-11T07:03:30.249Z,44.83
2018-08-11T07:05:05.739Z,44.13
2018-08-11T07:06:41.038Z,44.79
2018-08-11T07:08:16.453Z,44.20
2018-08-11T07:09:54.318Z,44.59
2018-08-11T07:11:30.405Z,44.86
2018-08-11T07:13:08.030Z,44.89
2018-08-11T07:14:43.199Z,44.67
2018-08-11T07:16:20.640Z,45.01
2018-08-11T07:17:55.953Z,45.03
2018-08-11T07:19:32.141Z,44.59
2018-08-11T07:21:18.114Z,44.49
2018-08-11T07:22:59.994Z,44.97
2018-08-11T07:24:35.715Z,44.45
2018-08-11T07:26:12.450Z,44.57
2018-08-11T07:27:47.575Z,45.12
2018-08-11T07:29:24.415Z,45.13
2018-08-11T07:31:01.102Z,44.62
2018-08-11T07:32:36.247Z,44.69
2018-08-11T07:34:11.793Z,44.52
2018-08-11T07:35:50.278Z,44.67
2018-08-11T07:37:25.935Z,44.73
2018-08-11T07:39:02.834Z,44.71
2018-08-11T07:40:38.037Z,44.75
2018-08-11T07:42:19.567Z,45.33
2018-08-11T07:43:54.846Z,45.34
2018-08-11T07:45:30.934Z,44.85
2018-08-11T07:47:10.784Z,45.20
2018-08-11T07:48:46.408Z,44.72
2018-08-11T07:50:22.412Z,45.01
2018-08-11T07:51:59.277Z,45.40
2018-08-11T07:53:35.202Z,44.84
2018-08-11T07:55:11.172Z,44.86
2018-08-11T07:56:47.640Z,45.41
2018-08-11T08:00:06.503Z,45.27
2018-08-11T08:01:43.180Z,45.54
2018-08-11T08:03:18.402Z,44.81
2018-08-11T08:04:57.442Z,44.89
2018-08-11T08:06:34.206Z,45.43
2018-08-11T08:08:10.595Z,45.44
2018-08-11T08:09:46.435Z,45.48
2018-08-11T08:11:22.323Z,45.56
2018-08-11T08:12:58.385Z,44.99
2018-08-11T08:14:33.998Z,45.36
2018-08-11T08:16:09.391Z,45.47
2018-08-11T08:17:44.529Z,45.33
2018-08-11T08:19:21.467Z,45.14
2018-08-11T08:20:56.984Z,45.54
2018-08-11T08:22:32.231Z,45.40
2018-08-11T08:24:08.294Z,45.26
2018-08-11T08:25:43.449Z,44.98
2018-08-11T08:27:19.322Z,45.03
2018-08-11T08:28:55.559Z,44.99
2018-08-11T08:30:35.313Z,45.57
2018-08-11T08:32:12.666Z,45.71
2018-08-11T08:33:48.913Z,45.30
2018-08-11T08:35:26.392Z,45.22
2018-08-11T08:37:01.681Z,45.40
2018-08-11T08:38:38.428Z,44.92
2018-08-11T08:40:14.247Z,45.63
2018-08-11T08:41:52.369Z,45.08
2018-08-11T08:43:29.690Z,45.38
2018-08-11T08:45:08.171Z,45.17
2018-08-11T08:46:44.821Z,45.57
2018-08-11T08:48:21.488Z,45.63
2018-08-11T08:49:59.757Z,45.02
2018-08-11T08:51:36.253Z,45.07
2018-08-11T08:53:12.619Z,45.74
2018-08-11T08:54:48.495Z,45.06
2018-08-11T08:56:25.727Z,44.96
2018-08-11T08:58:01.705Z,45.44
2018-08-11T08:59:37.185Z,45.13
2018-08-11T09:01:14.097Z,45.67
2018-08-11T09:02:49.425Z,45.43
2018-08-11T09:04:24.642Z,45.45
2018-08-11T09:06:00.626Z,44.83
2018-08-11T09:07:36.487Z,45.50
2018-08-11T09:09:17.632Z,45.14
2018-08-11T09:10:52.864Z,45.01
2018-08-11T09:12:29.129Z,44.82
2018-08-11T09:14:04.302Z,45.22
2018-08-11T09:15:39.979Z,45.14
2018-08-11T09:17:15.249Z,45.43
2018-08-11T09:18:50.827Z,44.88
2018-08-11T09:20:27.977Z,45.46
2018-08-11T09:22:04.353Z,45.41
2018-08-11T09:23:44.630Z,44.99
2018-08-11T09:25:25.412Z,45.47
2018-08-11T09:27:05.919Z,44.90
2018-08-11T09:28:42.728Z,44.99
2018-08-11T09:30:18.982Z,45.07
2018-08-11T09:31:54.584Z,45.29
2018-08-11T09:33:29.890Z,44.38
2018-08-11T09:35:05.686Z,45.37
2018-08-11T09:36:48.710Z,44.64
2018-08-11T09:38:30.657Z,45.20
2018-08-11T09:40:12.974Z,44.60
2018-08-11T09:41:51.620Z,45.31
2018-08-11T09:43:40.810Z,45.14
2018-08-11T09:45:52.244Z,44.90
2018-08-11T09:47:41.979Z,45.18
2018-08-11T09:49:30.531Z,45.14
2018-08-11T09:51:12.676Z,45.25
2018-08-11T09:52:48.819Z,45.03
2018-08-11T09:54:25.484Z,45.01
2018-08-11T09:56:02.522Z,45.22
2018-08-11T09:57:42.431Z,45.12
2018-08-11T09:59:22.202Z,44.34
2018-08-11T10:01:02.498Z,44.93
2018-08-11T10:02:39.637Z,44.43
2018-08-11T10:04:15.272Z,44.37
2018-08-11T10:05:51.903Z,44.99
2018-08-11T10:07:28.875Z,44.64
2018-08-11T10:09:06.449Z,44.83
2018-08-11T10:10:42.151Z,44.64
2018-08-11T10:12:19.608Z,44.60
2018-08-11T10:13:56.629Z,45.04
2018-08-11T10:15:33.247Z,44.90
2018-08-11T10:17:09.459Z,44.45
2018-08-11T10:18:45.943Z,44.78
2018-08-11T10:20:21.322Z,44.29
2018-08-11T10:21:58.029Z,44.03
2018-08-11T10:23:33.825Z,44.44
2018-08-11T10:25:12.568Z,44.43
2018-08-11T10:26:51.813Z,43.99
2018-08-11T10:28:27.430Z,44.62
2018-08-11T10:30:07.049Z,44.82
2018-08-11T10:31:50.823Z,44.10
2018-08-11T10:33:34.514Z,44.10
2018-08-11T10:35:18.514Z,44.32
2018-08-11T10:36:54.417Z,44.65
2018-08-11T10:38:29.740Z,43.88
2018-08-11T10:40:05.622Z,44.00
2018-08-11T10:41:42.137Z,43.90
2018-08-11T10:43:19.681Z,44.26
2018-08-11T10:44:56.556Z,44.22
2018-08-11T10:46:33.000Z,43.87
2018-08-11T10:48:08.516Z,43.96
2018-08-11T10:49:43.978Z,43.83
2018-08-11T10:51:20.195Z,43.84
2018-08-11T10:53:01.649Z,44.46
2018-08-11T10:54:38.065Z,44.30
2018-08-11T10:56:14.843Z,44.09
2018-08-11T10:57:50.195Z,43.75
2018-08-11T10:59:26.958Z,44.02
2018-08-11T11:01:03.083Z,43.93
2018-08-11T11:02:40.812Z,44.04
2018-08-11T11:04:16.279Z,44.10
2018-08-11T11:05:53.845Z,44.30
2018-08-11T11:07:31.427Z,43.34
2018-08-11T11:09:12.171Z,43.81
2018-08-11T11:10:49.143Z,43.71
2018-08-11T11:12:25.152Z,43.81
2018-08-11T11:14:01.697Z,43.89
2018-08-11T11:15:39.186Z,44.06
2018-08-11T11:17:15.257Z,43.97
2018-08-11T11:18:52.278Z,43.66
2018-08-11T11:20:27.438Z,43.60
2018-08-11T11:22:03.088Z,43.26
2018-08-11T11:23:39.302Z,43.96
2018-08-11T11:25:15.211Z,43.53
2018-08-11T11:26:51.032Z,43.27
2018-08-11T11:28:26.302Z,43.26
2018-08-11T11:30:04.588Z,43.50
2018-08-11T11:31:40.349Z,43.12
2018-08-11T11:33:16.196Z,43.59
2018-08-11T11:34:52.207Z,43.35
2018-08-11T11:36:27.487Z,42.97
2018-08-11T11:38:05.087Z,43.00
2018-08-11T11:39:42.610Z,42.86
2018-08-11T11:41:18.935Z,43.08
2018-08-11T11:42:54.939Z,43.20
2018-08-11T11:44:30.735Z,42.73
2018-08-11T11:46:07.688Z,43.10
2018-08-11T11:47:43.722Z,43.23
2018-08-11T11:49:19.283Z,43.22
2018-08-11T11:50:59.461Z,43.11
2018-08-11T11:52:36.689Z,43.09
2018-08-11T11:54:12.844Z,43.06
2018-08-11T11:55:48.543Z,43.07
2018-08-11T11:57:29.545Z,42.53
2018-08-11T11:59:05.126Z,43.02
2018-08-11T12:00:42.141Z,42.43
2018-08-11T12:02:18.156Z,42.49
2018-08-11T12:03:54.747Z,43.05
2018-08-11T12:07:13.909Z,42.70
2018-08-11T12:08:49.168Z,42.59
2018-08-11T12:10:29.571Z,42.25
2018-08-11T12:12:05.827Z,42.32
2018-08-11T12:13:41.180Z,42.50
2018-08-11T12:15:19.161Z,42.58
2018-08-11T12:16:55.056Z,42.22
2018-08-11T12:18:30.523Z,42.20
2018-08-11T12:20:06.300Z,42.73
2018-08-11T12:21:42.208Z,42.03
2018-08-11T12:23:18.516Z,42.34
2018-08-11T12:24:55.814Z,42.52
2018-08-11T12:26:38.786Z,42.30
2018-08-11T12:28:14.537Z,42.00
2018-08-11T12:29:51.896Z,42.46
2018-08-11T12:31:29.013Z,42.36
2018-08-11T12:33:04.333Z,41.78
2018-08-11T12:34:40.348Z,42.35
2018-08-11T12:36:21.969Z,42.52
2018-08-11T12:38:03.267Z,42.31
2018-08-11T12:39:39.125Z,42.03
2018-08-11T12:41:15.901Z,42.03
2018-08-11T12:42:51.451Z,42.15
2018-08-11T12:44:26.689Z,41.84
2018-08-11T12:46:03.834Z,42.42
2018-08-11T12:47:39.496Z,42.00
2018-08-11T12:49:19.521Z,41.98
2018-08-11T12:50:57.192Z,42.27
2018-08-11T12:52:33.488Z,41.69
2018-08-11T12:54:12.397Z,42.14
2018-08-11T12:55:49.078Z,41.60
2018-08-11T12:57:24.439Z,41.97
2018-08-11T12:59:02.486Z,41.70
2018-08-11T13:00:42.501Z,41.66
2018-08-11T13:02:21.178Z,41.83
2018-08-11T13:03:58.245Z,41.60
2018-08-11T13:05:37.770Z,41.56
2018-08-11T13:07:18.548Z,41.52
2018-08-11T13:08:56.263Z,41.88
2018-08-11T13:10:32.101Z,41.74
2018-08-11T13:12:10.513Z,41.91
2018-08-11T13:13:46.201Z,41.41
2018-08-11T13:15:23.434Z,41.49
2018-08-11T13:17:00.790Z,41.68
2018-08-11T13:18:36.866Z,40.95
2018-08-11T13:20:14.287Z,41.56
2018-08-11T13:21:52.094Z,40.97
2018-08-11T13:23:27.594Z,41.09
2018-08-11T13:25:05.221Z,40.79
2018-08-11T13:26:40.936Z,40.95
2018-08-11T13:28:16.549Z,41.42
2018-08-11T13:29:52.528Z,41.43
2018-08-11T13:31:31.656Z,41.51
2018-08-11T13:33:08.333Z,41.26
2018-08-11T13:36:31.379Z,41.33
2018-08-11T13:38:06.544Z,40.63
2018-08-11T13:39:52.795Z,40.95
2018-08-11T13:41:33.761Z,40.73
2018-08-11T13:43:10.516Z,41.20
2018-08-11T13:44:47.550Z,40.40
2018-08-11T13:46:24.248Z,40.86
2018-08-11T13:48:01.828Z,40.84
2018-08-11T13:49:38.490Z,40.57
2018-08-11T13:51:15.559Z,40.76
2018-08-11T13:52:59.965Z,40.56
2018-08-11T13:54:37.508Z,40.90
2018-08-11T13:56:13.693Z,40.89
2018-08-11T13:57:49.515Z,40.83
2018-08-11T13:59:30.229Z,40.86
2018-08-11T14:01:07.821Z,40.46
2018-08-11T14:02:46.845Z,40.36
2018-08-11T14:04:22.807Z,40.74
2018-08-11T14:05:59.589Z,40.56
2018-08-11T14:07:36.086Z,40.62
2018-08-11T14:09:12.662Z,39.79
2018-08-11T14:10:55.642Z,40.10
2018-08-11T14:12:31.020Z,40.14
2018-08-11T14:14:07.952Z,40.44
2018-08-11T14:15:44.510Z,40.09
2018-08-11T14:17:23.364Z,40.38
2018-08-11T14:19:01.508Z,39.33
2018-08-11T14:20:37.422Z,40.38
2018-08-11T14:22:13.403Z,39.49
2018-08-11T14:23:49.590Z,40.33
2018-08-11T14:25:30.181Z,40.23
2018-08-11T14:27:10.329Z,39.84
2018-08-11T14:28:51.412Z,39.67
2018-08-11T14:30:29.169Z,39.82
2018-08-11T14:32:06.056Z,39.46
2018-08-11T14:33:41.385Z,39.59
2018-08-11T14:35:18.290Z,39.68
2018-08-11T14:36:53.670Z,39.74
2018-08-11T14:38:30.617Z,39.66
2018-08-11T14:40:09.688Z,39.28
2018-08-11T14:41:48.350Z,39.83
2018-08-11T14:43:25.676Z,39.37
2018-08-11T14:45:07.397Z,39.74
2018-08-11T14:46:43.297Z,39.15
2018-08-11T14:48:18.640Z,39.68
2018-08-11T14:49:54.138Z,39.69
2018-08-11T14:51:30.880Z,39.61
2018-08-11T14:53:06.191Z,39.55
2018-08-11T14:54:42.492Z,39.49
2018-08-11T14:56:18.298Z,39.03
2018-08-11T14:57:54.786Z,39.13
2018-08-11T14:59:33.511Z,39.14
2018-08-11T15:01:19.581Z,39.68
2018-08-11T15:03:03.680Z,38.84
2018-08-11T15:04:46.829Z,39.44
2018-08-11T15:06:23.303Z,38.87
2018-08-11T15:07:58.529Z,38.74
2018-08-11T15:09:37.946Z,38.78
2018-08-11T15:11:13.195Z,38.98
2018-08-11T15:12:53.435Z,38.93
2018-08-11T15:14:37.472Z,38.68
2018-08-11T15:16:15.949Z,38.96
2018-08-11T15:17:52.968Z,38.58
2018-08-11T15:19:32.882Z,38.74
2018-08-11T15:21:08.815Z,38.94
2018-08-11T15:22:44.997Z,38.82
2018-08-11T15:24:34.474Z,39.16
2018-08-11T15:26:28.126Z,38.98
2018-08-11T15:28:12.611Z,38.52
2018-08-11T15:29:53.110Z,38.48
2018-08-11T15:31:30.275Z,38.71
2018-08-11T15:33:06.912Z,39.00
2018-08-11T15:34:44.151Z,38.25
2018-08-11T15:36:22.100Z,38.93
2018-08-11T15:37:57.406Z,38.50
2018-08-11T15:39:33.413Z,38.54
2018-08-11T15:41:11.837Z,38.38
2018-08-11T15:42:47.332Z,38.26
2018-08-11T15:44:23.515Z,38.10
2018-08-11T15:46:01.260Z,38.47
2018-08-11T15:47:36.736Z,38.00
2018-08-11T15:49:13.635Z,38.43
2018-08-11T15:50:55.907Z,38.15
2018-08-11T15:52:38.757Z,37.94
2018-08-11T15:54:21.511Z,37.91
2018-08-11T15:56:00.780Z,38.20
2018-08-11T15:57:38.864Z,37.84
2018-08-11T15:59:15.227Z,38.46
2018-08-11T16:00:51.088Z,38.55
2018-08-11T16:02:28.440Z,37.83
2018-08-11T16:04:04.590Z,38.25
2018-08-11T16:05:42.456Z,37.88
2018-08-11T16:07:18.081Z,37.77
2018-08-11T16:08:53.306Z,38.34
2018-08-11T16:10:29.508Z,37.81
2018-08-11T16:12:05.276Z,37.72
2018-08-11T16:13:43.465Z,38.01
2018-08-11T16:15:20.536Z,38.45
2018-08-11T16:16:55.932Z,38.28
2018-08-11T16:18:31.365Z,37.93
2018-08-11T16:20:07.947Z,38.08
2018-08-11T16:21:46.614Z,37.46
2018-08-11T16:23:22.492Z,38.16
2018-08-11T16:24:57.727Z,38.14
2018-08-11T16:26:35.804Z,37.32
2018-08-11T16:28:12.156Z,37.68
2018-08-11T16:29:48.489Z,37.50
2018-08-11T16:31:24.955Z,37.38
2018-08-11T16:33:01.629Z,38.03
2018-08-11T16:34:38.971Z,37.54
2018-08-11T16:36:16.521Z,37.32
2018-08-11T16:37:51.960Z,37.54
2018-08-11T16:39:30.794Z,37.91
2018-08-11T16:41:08.230Z,37.67
2018-08-11T16:42:45.260Z,37.72
2018-08-11T16:44:20.873Z,37.09
2018-08-11T16:45:57.523Z,37.25
2018-08-11T16:47:34.968Z,37.86
2018-08-11T16:49:10.358Z,37.79
2018-08-11T16:50:45.735Z,37.69
2018-08-11T16:52:22.115Z,37.77
2018-08-11T16:53:58.286Z,37.07
2018-08-11T16:55:38.721Z,36.95
2018-08-11T16:57:18.703Z,37.22
2018-08-11T16:59:00.700Z,37.28
2018-08-11T17:00:36.829Z,37.08
2018-08-11T17:02:13.494Z,37.45
2018-08-11T17:03:51.393Z,36.96
2018-08-11T17:05:28.235Z,36.80
2018-08-11T17:07:04.427Z,37.49
2018-08-11T17:08:43.982Z,36.85
2018-08-11T17:10:19.534Z,37.43
2018-08-11T17:11:56.672Z,37.06
2018-08-11T17:13:33.952Z,37.31
2018-08-11T17:15:11.243Z,37.14
2018-08-11T17:16:47.488Z,37.02
2018-08-11T17:18:22.688Z,37.37
2018-08-11T17:19:58.711Z,36.59
2018-08-11T17:21:36.807Z,37.00
2018-08-11T17:23:16.402Z,36.50
2018-08-11T17:24:56.822Z,36.50
2018-08-11T17:26:34.371Z,36.70
2018-08-11T17:28:10.744Z,37.35
2018-08-11T17:29:47.588Z,37.14
2018-08-11T17:31:24.856Z,37.13
2018-08-11T17:33:00.126Z,37.01
2018-08-11T17:34:40.691Z,37.17
2018-08-11T17:36:16.632Z,36.78
2018-08-11T17:37:55.569Z,37.29
2018-08-11T17:39:33.646Z,37.04
2018-08-11T17:41:09.264Z,36.50
2018-08-11T17:42:49.603Z,37.10
2018-08-11T17:44:25.841Z,36.44
2018-08-11T17:46:04.481Z,36.77
2018-08-11T17:47:41.661Z,36.99
2018-08-11T17:49:19.718Z,36.55
2018-08-11T17:50:56.158Z,36.54
2018-08-11T17:52:34.119Z,36.22
2018-08-11T17:54:09.997Z,36.55
2018-08-11T17:55:47.543Z,36.08
2018-08-11T17:57:24.755Z,36.85
2018-08-11T17:59:02.438Z,36.81
2018-08-11T18:00:44.506Z,36.31
2018-08-11T18:02:23.089Z,36.00
2018-08-11T18:03:58.285Z,36.12
2018-08-11T18:05:34.311Z,36.52
2018-08-11T18:07:10.295Z,36.15
2018-08-11T18:08:52.728Z,36.72
2018-08-11T18:10:30.042Z,36.15
2018-08-11T18:12:05.479Z,36.09
2018-08-11T18:13:42.035Z,35.94
2018-08-11T18:15:20.002Z,36.88
2018-08-11T18:16:57.180Z,35.85
2018-08-11T18:18:32.532Z,35.78
2018-08-11T18:20:07.976Z,36.03
2018-08-11T18:21:45.416Z,36.55
2018-08-11T18:23:21.319Z,35.98
2018-08-11T18:24:59.282Z,36.28
2018-08-11T18:26:35.793Z,36.11
2018-08-11T18:28:13.570Z,36.11
2018-08-11T18:29:48.822Z,35.91
2018-08-11T18:31:25.567Z,35.51
2018-08-11T18:33:01.049Z,35.72
2018-08-11T18:34:36.554Z,35.69
2018-08-11T18:36:12.393Z,35.92
2018-08-11T18:37:47.705Z,35.83
2018-08-11T18:39:23.032Z,35.78
2018-08-11T18:41:00.770Z,35.90
2018-08-11T18:42:36.551Z,35.93
2018-08-11T18:44:11.759Z,36.46
2018-08-11T18:45:50.059Z,36.11
2018-08-11T18:47:26.495Z,36.10
2018-08-11T18:49:01.721Z,35.88
2018-08-11T18:50:38.870Z,35.59
2018-08-11T18:52:14.274Z,36.18
2018-08-11T18:53:49.830Z,36.13
2018-08-11T18:55:28.119Z,36.20
2018-08-11T18:57:04.640Z,35.67
2018-08-11T18:58:41.833Z,35.86
2018-08-11T19:00:19.812Z,35.63
2018-08-11T19:01:55.898Z,35.41
2018-08-11T19:03:31.272Z,35.82
2018-08-11T19:05:08.913Z,36.05
2018-08-11T19:06:49.284Z,35.58
2018-08-11T19:08:25.492Z,35.43
2018-08-11T19:10:01.438Z,35.96
2018-08-11T19:11:38.418Z,36.04
2018-08-11T19:13:15.456Z,35.77
2018-08-11T19:14:58.020Z,35.82
2018-08-11T19:16:33.446Z,35.61
2018-08-11T19:18:13.901Z,35.85
2018-08-11T19:19:52.557Z,35.37
2018-08-11T19:21:28.090Z,35.90
2018-08-11T19:23:04.183Z,35.29
2018-08-11T19:24:41.391Z,35.76
2018-08-11T19:26:19.231Z,35.18
2018-08-11T19:27:56.604Z,35.30
2018-08-11T19:29:33.598Z,35.31
2018-08-11T19:31:14.534Z,35.41
2018-08-11T19:32:51.276Z,35.51
2018-08-11T19:34:26.527Z,35.72
2018-08-11T19:36:05.701Z,35.07
2018-08-11T19:37:43.524Z,35.64
2018-08-11T19:39:29.741Z,35.65
2018-08-11T19:41:06.927Z,35.52
2018-08-11T19:42:42.189Z,35.39
2018-08-11T19:44:21.509Z,35.65
2018-08-11T19:45:59.537Z,35.32
2018-08-11T19:47:38.539Z,35.47
2018-08-11T19:49:15.010Z,35.08
2018-08-11T19:50:53.519Z,35.17
2018-08-11T19:52:31.701Z,35.78
2018-08-11T19:54:07.575Z,35.70
2018-08-11T19:55:44.501Z,34.97
2018-08-11T19:57:23.298Z,35.17
2018-08-11T19:58:59.815Z,35.71
2018-08-11T20:00:42.497Z,35.17
2018-08-11T20:02:18.048Z,35.15
2018-08-11T20:03:54.255Z,35.53
2018-08-11T20:05:32.216Z,35.53
2018-08-11T20:07:09.364Z,35.32
2018-08-11T20:08:46.204Z,35.64
2018-08-11T20:10:22.473Z,35.06
2018-08-11T20:11:59.037Z,35.69
2018-08-11T20:13:34.562Z,35.10
2018-08-11T20:15:13.531Z,35.67
2018-08-11T20:16:55.607Z,34.88
2018-08-11T20:18:33.523Z,34.91
2018-08-11T20:20:12.074Z,35.11
2018-08-11T20:21:47.571Z,34.89
2018-08-11T20:23:28.980Z,35.04
2018-08-11T20:25:05.222Z,35.43
2018-08-11T20:28:19.657Z,35.45
2018-08-11T20:29:57.771Z,35.47
2018-08-11T20:31:38.735Z,34.86
2018-08-11T20:33:15.048Z,35.50
2018-08-11T20:34:53.649Z,35.26
2018-08-11T20:36:29.937Z,35.29
2018-08-11T20:38:08.765Z,34.98
2018-08-11T20:39:46.349Z,34.94
2018-08-11T20:41:24.106Z,35.11
2018-08-11T20:43:04.467Z,35.13
2018-08-11T20:44:46.929Z,34.92
2018-08-11T20:46:33.724Z,35.08
2018-08-11T20:48:10.455Z,34.83
2018-08-11T20:49:55.201Z,35.39
2018-08-11T20:51:31.530Z,34.81
2018-08-11T20:53:10.688Z,35.40
2018-08-11T20:54:47.057Z,34.83
2018-08-11T20:56:24.744Z,35.18